»·PEaware :: N829SV KEGE-KTEX

N829SV :: KEGE-KTEX

FLIGHT INFORMATION

Flight Status: Arrived
Operator: Privately registered:
United States
More flights under this callsign
Pilot: Nicholas W. (36245)
Aircraft: CESSNA 414 CHANCELLOR
(C414)
More flights by this aircraft type
Origin: KEGE Eagle Co Regl
United States
Destination: KTEX Telluride Regl
United States
More flights between these airports :: More routes between these airports
Route: BEVVR1 SPRKT ETL
File this flight plan on PilotEdge
Remarks: <3
Altitude:
(Current/Filed)
18,000ft
Speed:
(Current/Filed)
180kts
Departed: 08-Nov-23 07:58 PM
Arrived: 08-Nov-23 08:46 PM
Distance/Time
Traveled:
111nm/0:48
Distance/Time
To Go:
Arrived

Flight Plot

Page will automatically refresh every two minutes.

Flight plan parsing failed; only flown route is shown


Map Options




Map Legend


Flown Route
Filed Route
Departure Airport
Arrival Airport
Navaid (VOR, NDB)
Fix

Horizontal Profiles

Position Reports

Time Latitude Longitude Heading Altitude Ground
Speed
08-Nov-23 19:45 39.645865 -106.910147 183 6528ft 0kts
08-Nov-23 19:47 39.645865 -106.910147 183 6528ft 0kts
08-Nov-23 19:48 39.645865 -106.910147 183 6528ft 0kts
08-Nov-23 19:49 39.645865 -106.910147 183 6528ft 0kts
08-Nov-23 19:49 39.645865 -106.910147 183 6528ft 0kts
08-Nov-23 19:50 39.645865 -106.910147 183 6528ft 0kts
08-Nov-23 19:52 39.645497 -106.909814 150 6528ft 9kts
08-Nov-23 19:53 39.642593 -106.909282 137 6530ft 10kts
08-Nov-23 19:54 39.642885 -106.904777 81 6537ft 12kts
08-Nov-23 19:54 39.643468 -106.900293 48 6546ft 9kts
08-Nov-23 19:55 39.643576 -106.900188 25 6545ft 0kts
08-Nov-23 19:56 39.644258 -106.900382 310 6546ft 15kts
08-Nov-23 19:57 39.641347 -106.926348 265 6609ft 113kts
08-Nov-23 19:58 39.615326 -106.949152 227 7779ft 142kts
08-Nov-23 19:59 39.581641 -106.983596 241 8778ft 168kts
08-Nov-23 20:00 39.580931 -107.045860 274 9849ft 182kts
08-Nov-23 20:01 39.609766 -107.097507 318 10886ft 186kts
08-Nov-23 20:02 39.657239 -107.106079 12 11932ft 183kts
08-Nov-23 20:03 39.705727 -107.092797 10 13363ft 174kts
08-Nov-23 20:04 39.744909 -107.112223 301 14747ft 160kts
08-Nov-23 20:05 39.769551 -107.159712 300 16102ft 156kts
08-Nov-23 20:06 39.755953 -107.200515 206 17324ft 153kts
08-Nov-23 20:07 39.713766 -107.226891 208 17924ft 190kts
08-Nov-23 20:08 39.661972 -107.259655 207 17916ft 216kts
08-Nov-23 20:09 39.607269 -107.294181 208 17985ft 220kts
08-Nov-23 20:10 39.551761 -107.329165 207 17997ft 224kts
08-Nov-23 20:11 39.496038 -107.364216 207 18025ft 222kts
08-Nov-23 20:12 39.440519 -107.399155 208 18046ft 222kts
08-Nov-23 20:13 39.384847 -107.434046 208 18056ft 222kts
08-Nov-23 20:14 39.329147 -107.468899 208 18052ft 222kts
08-Nov-23 20:15 39.273772 -107.503497 208 18049ft 222kts
08-Nov-23 20:16 39.218514 -107.537944 209 18046ft 219kts
08-Nov-23 20:17 39.163502 -107.572194 209 18046ft 220kts
08-Nov-23 20:18 39.108394 -107.606434 209 18038ft 219kts
08-Nov-23 20:19 39.054589 -107.639795 209 18046ft 211kts
08-Nov-23 20:20 39.001902 -107.672435 210 18032ft 210kts
08-Nov-23 20:21 38.949038 -107.705115 210 18031ft 210kts
08-Nov-23 20:22 38.896655 -107.737443 210 18036ft 209kts
08-Nov-23 20:23 38.844291 -107.769712 210 18036ft 209kts
08-Nov-23 20:24 38.792058 -107.801843 210 18036ft 208kts
08-Nov-23 20:25 38.740133 -107.833731 211 18040ft 206kts
08-Nov-23 20:26 38.688585 -107.865348 211 18046ft 205kts
08-Nov-23 20:27 38.637242 -107.896778 211 18055ft 204kts
08-Nov-23 20:28 38.586307 -107.927910 211 18062ft 202kts
08-Nov-23 20:29 38.535640 -107.958832 211 18060ft 201kts
08-Nov-23 20:30 38.485617 -107.989306 211 18061ft 198kts
08-Nov-23 20:31 38.436189 -108.019380 211 18057ft 196kts
08-Nov-23 20:32 38.387407 -108.049014 212 18053ft 195kts
08-Nov-23 20:33 38.336530 -108.079914 211 17316ft 208kts
08-Nov-23 20:34 38.282598 -108.112579 210 15978ft 222kts
08-Nov-23 20:35 38.225747 -108.147245 208 14518ft 229kts
08-Nov-23 20:36 38.167198 -108.178911 207 12989ft 229kts
08-Nov-23 20:37 38.109500 -108.211631 207 11968ft 215kts
08-Nov-23 20:38 38.057428 -108.241001 207 11964ft 198kts
08-Nov-23 20:39 38.015910 -108.206331 117 11967ft 221kts
08-Nov-23 20:40 37.994985 -108.133077 115 11973ft 221kts
08-Nov-23 20:41 37.979369 -108.056529 106 11266ft 219kts
08-Nov-23 20:42 37.968718 -107.991639 108 10373ft 155kts
08-Nov-23 20:43 37.960722 -107.941494 103 9343ft 144kts
08-Nov-23 20:44 37.952628 -107.903100 105 9035ft 43kts
08-Nov-23 20:45 37.954035 -107.901691 13 9052ft 0kts
08-Nov-23 20:46 37.954035 -107.901691 13 9052ft 0kts
08-Nov-23 20:47 37.954035 -107.901691 13 9052ft 0kts
08-Nov-23 20:48 37.954035 -107.901691 13 9052ft 0kts
08-Nov-23 20:49 37.954035 -107.901691 13 9052ft 0kts
08-Nov-23 20:50 37.954035 -107.901691 13 9052ft 0kts
08-Nov-23 20:51 37.954035 -107.901691 13 9052ft 0kts
08-Nov-23 20:52 37.954035 -107.901691 13 9052ft 0kts
08-Nov-23 20:53 37.954035 -107.901691 13 9052ft 0kts
08-Nov-23 20:54 37.954035 -107.901691 13 9052ft 0kts
08-Nov-23 20:55 37.954035 -107.901691 13 9052ft 0kts
08-Nov-23 20:56 37.954035 -107.901691 13 9052ft 0kts
08-Nov-23 20:57 37.954035 -107.901691 13 9052ft 0kts
08-Nov-23 20:58 37.954035 -107.901691 13 9052ft 0kts
08-Nov-23 20:59 37.954035 -107.901691 13 9052ft 0kts

Navigation Log

Ident Type
Flight plan parsing failed, navigation log unavailable